Time;durP1;ratioP1;P1;durP2;ratioP2;P2;SDS_P1;SDS_P2;PMS_P1;PMS_P2;Temp;Humidity;BMP_temperature;BMP_pressure;BME280_temperature;BME280_humidity;BME280_pressure;Samples;Min_cycle;Max_cycle;Signal;HPM_P1;HPM_P2
2023/01/19 00:01:18;;;;;;;8.55;2.20;;;;;;;10.90;nan;-24121.44;5031771;28;20172;-79
2023/01/19 00:03:44;;;;;;;13.55;2.20;;;;;;;11.04;nan;-24125.53;5030365;28;20682;-81
2023/01/19 00:06:10;;;;;;;6.40;2.63;;;;;;;11.33;nan;-24133.41;5030405;28;20167;-83
2023/01/19 00:08:35;;;;;;;8.63;2.28;;;;;;;11.00;nan;-24124.41;5030863;28;20175;-81
2023/01/19 00:11:01;;;;;;;13.27;3.13;;;;;;;11.70;nan;-24143.84;5030322;28;20643;-82
2023/01/19 00:13:50;;;;;;;4.63;2.85;;;;;;;11.76;nan;-24145.41;5034385;28;20203;-81
2023/01/19 00:16:43;;;;;;;5.35;2.05;;;;;;;12.12;nan;-24155.53;5032797;28;20194;-79
2023/01/19 00:19:16;;;;;;;10.30;2.13;;;;;;;12.07;nan;-24154.13;5033349;28;20182;-80
2023/01/19 00:22:05;;;;;;;16.13;3.30;;;;;;;11.90;nan;-24149.34;5016910;28;20191;-80
2023/01/19 00:24:38;;;;;;;8.48;2.60;;;;;;;11.70;nan;-24143.84;5014789;28;20238;-81
2023/01/19 00:27:59;;;;;;;5.00;2.15;;;;;;;11.47;nan;-24137.50;5014388;28;20184;-81
2023/01/19 00:31:05;;;;;;;5.65;2.70;;;;;;;11.40;nan;-24135.53;5014666;28;20283;-82
2023/01/19 00:34:15;;;;;;;18.27;3.20;;;;;;;11.28;nan;-24132.16;5014650;28;20250;-82
2023/01/19 00:41:17;;;;;;;10.23;2.58;;;;;;;11.47;nan;-24137.34;5023197;28;20211;-79
2023/01/19 00:43:48;;;;;;;9.18;2.08;;;;;;;11.35;nan;-24133.97;5026109;28;20176;-83
2023/01/19 00:46:16;;;;;;;6.88;2.50;;;;;;;11.28;nan;-24132.16;5034399;28;20232;-81
2023/01/19 00:48:44;;;;;;;9.30;2.50;;;;;;;11.29;nan;-24132.44;5034534;28;20225;-79
2023/01/19 00:51:11;;;;;;;7.53;2.92;;;;;;;11.63;nan;-24141.72;5033097;28;20231;-79
2023/01/19 00:53:38;;;;;;;7.60;2.55;;;;;;;11.95;nan;-24150.75;5034201;28;20179;-81
2023/01/19 00:56:05;;;;;;;8.40;2.58;;;;;;;12.54;nan;-24167.06;5034125;28;20230;-79
2023/01/19 00:58:32;;;;;;;8.35;2.13;;;;;;;13.39;nan;-24190.69;5033943;28;20221;-80
2023/01/19 01:01:03;;;;;;;6.30;2.17;;;;;;;13.91;nan;-24205.28;5034411;28;20650;-80
2023/01/19 01:03:30;;;;;;;7.82;2.03;;;;;;;13.84;nan;-24203.19;5033958;28;20238;-81
2023/01/19 01:05:58;;;;;;;11.35;3.10;;;;;;;13.79;nan;-24201.91;5033834;28;20703;-80
2023/01/19 01:08:27;;;;;;;9.80;2.15;;;;;;;13.58;nan;-24196.03;5033995;28;20554;-80
2023/01/19 01:10:55;;;;;;;10.55;2.88;;;;;;;13.72;nan;-24199.97;5032640;28;20290;-78
2023/01/19 01:13:22;;;;;;;11.88;2.25;;;;;;;13.80;nan;-24202.19;5034220;28;20242;-80
2023/01/19 01:15:51;;;;;;;22.77;3.30;;;;;;;13.67;nan;-24198.69;5032446;28;20191;-80
2023/01/19 01:18:18;;;;;;;15.68;2.97;;;;;;;13.41;nan;-24191.25;5027835;28;20187;-80
2023/01/19 01:20:43;;;;;;;5.25;1.98;;;;;;;13.60;nan;-24196.72;5033751;28;20564;-81
2023/01/19 01:23:34;;;;;;;17.85;2.38;;;;;;;13.62;nan;-24197.28;5033240;28;20172;-81
2023/01/19 01:26:05;;;;;;;8.27;2.00;;;;;;;13.33;nan;-24189.00;5029716;28;20562;-80
2023/01/19 01:28:44;;;;;;;6.68;3.35;;;;;;;13.29;nan;-24188.03;5032185;28;20175;-81
2023/01/19 01:31:19;;;;;;;6.00;1.85;;;;;;;13.60;nan;-24196.72;5033097;28;20207;-79
2023/01/19 01:33:46;;;;;;;5.80;2.38;;;;;;;13.69;nan;-24199.13;5031686;28;20545;-82
2023/01/19 01:36:13;;;;;;;12.93;3.00;;;;;;;13.77;nan;-24201.38;5033294;28;20211;-82
2023/01/19 01:38:50;;;;;;;15.10;2.50;;;;;;;13.66;nan;-24198.28;5033580;28;20175;-80
2023/01/19 01:41:27;;;;;;;17.45;2.72;;;;;;;12.94;nan;-24178.31;5033291;28;20159;-82
2023/01/19 01:44:00;;;;;;;5.93;2.45;;;;;;;12.75;nan;-24172.97;5033103;28;20163;-80
2023/01/19 01:46:30;;;;;;;4.72;2.20;;;;;;;13.01;nan;-24180.28;5033832;28;20235;-79
2023/01/19 01:49:11;;;;;;;7.57;2.17;;;;;;;12.86;nan;-24176.06;5032116;28;20629;-83
2023/01/19 01:51:50;;;;;;;8.50;2.90;;;;;;;12.61;nan;-24169.19;5031749;28;20281;-79
2023/01/19 01:54:32;;;;;;;7.85;2.67;;;;;;;12.07;nan;-24154.13;5027760;28;20187;-81
2023/01/19 01:57:03;;;;;;;10.13;2.50;;;;;;;11.91;nan;-24149.63;5032120;28;20179;-79
2023/01/19 01:59:37;;;;;;;13.68;2.40;;;;;;;11.93;nan;-24150.19;5031746;28;20551;-79
2023/01/19 02:05:02;;;;;;;10.20;3.33;;;;;;;11.57;nan;-24140.03;5052289;28;20193;-79
2023/01/19 02:13:24;;;;;;;6.47;2.35;;;;;;;11.43;nan;-24136.38;5052283;28;20270;-82
2023/01/19 02:15:54;;;;;;;5.80;2.67;;;;;;;11.12;nan;-24127.63;5051934;28;20660;-79
2023/01/19 02:18:26;;;;;;;10.30;3.35;;;;;;;11.36;nan;-24134.25;5050091;28;20186;-83
2023/01/19 02:21:21;;;;;;;15.30;2.60;;;;;;;11.30;nan;-24132.72;5051391;28;20265;-80
2023/01/19 02:24:19;;;;;;;6.75;2.35;;;;;;;11.24;nan;-24130.88;5052236;28;20189;-80
2023/01/19 02:26:47;;;;;;;9.45;3.08;;;;;;;11.39;nan;-24135.09;5052936;28;20166;-82
2023/01/19 02:29:17;;;;;;;2.63;2.30;;;;;;;10.97;nan;-24123.53;5052469;28;20202;-80
2023/01/19 02:31:44;;;;;;;13.73;3.05;;;;;;;11.08;nan;-24126.50;5050336;28;20238;-81
2023/01/19 02:34:14;;;;;;;10.93;2.53;;;;;;;11.11;nan;-24127.22;5052184;28;20200;-82
2023/01/19 02:36:48;;;;;;;4.97;2.05;;;;;;;11.35;nan;-24134.13;5052193;28;20185;-81
2023/01/19 02:39:18;;;;;;;13.00;2.65;;;;;;;11.00;nan;-24124.25;5052513;28;20174;-77
2023/01/19 02:41:47;;;;;;;11.40;2.78;;;;;;;11.22;nan;-24130.31;5052063;28;20175;-80
2023/01/19 02:44:15;;;;;;;4.35;2.00;;;;;;;10.60;nan;-24113.25;5047216;28;20724;-79
2023/01/19 02:46:40;;;;;;;13.20;2.60;;;;;;;10.81;nan;-24118.91;5026548;28;20194;-82
2023/01/19 02:49:06;;;;;;;12.75;3.22;;;;;;;11.41;nan;-24135.81;5030807;28;20183;-80
2023/01/19 02:51:32;;;;;;;9.00;2.30;;;;;;;11.39;nan;-24135.25;5032356;28;20231;-82
2023/01/19 02:54:03;;;;;;;10.20;2.60;;;;;;;11.31;nan;-24133.00;5031133;28;20280;-80
2023/01/19 02:56:48;;;;;;;14.68;3.10;;;;;;;11.20;nan;-24129.88;5032644;28;20177;-81
2023/01/19 02:59:47;;;;;;;8.68;2.35;;;;;;;11.24;nan;-24131.03;5030667;28;20215;-80
2023/01/19 03:02:12;;;;;;;7.30;2.80;;;;;;;11.34;nan;-24133.69;5036245;28;20230;-78
2023/01/19 03:04:50;;;;;;;13.38;2.67;;;;;;;11.27;nan;-24131.88;5037138;28;20552;-79
2023/01/19 03:07:53;;;;;;;9.82;2.65;;;;;;;11.32;nan;-24133.28;5049847;28;20170;-77
2023/01/19 03:10:24;;;;;;;4.53;2.13;;;;;;;11.00;nan;-24124.41;5033294;28;20556;-82
2023/01/19 03:12:58;;;;;;;2.85;2.22;;;;;;;10.49;nan;-24110.16;5032331;28;20179;-80
2023/01/19 03:15:54;;;;;;;5.10;2.17;;;;;;;10.88;nan;-24120.88;5030683;28;20180;-80
2023/01/19 03:18:24;;;;;;;6.25;2.47;;;;;;;10.76;nan;-24117.47;5013920;28;20187;-82
2023/01/19 03:20:54;;;;;;;9.77;2.55;;;;;;;10.73;nan;-24116.78;5031295;28;20189;-83
2023/01/19 03:23:24;;;;;;;11.57;2.92;;;;;;;10.50;nan;-24110.28;5030430;28;20186;-83
2023/01/19 03:25:53;;;;;;;9.10;2.58;;;;;;;9.98;nan;-24095.88;5030750;28;20275;-82
2023/01/19 03:28:21;;;;;;;13.68;2.65;;;;;;;10.40;nan;-24107.63;5031849;28;20604;-82
2023/01/19 03:30:56;;;;;;;6.95;2.35;;;;;;;10.19;nan;-24101.81;5031722;28;20209;-83
2023/01/19 03:33:35;;;;;;;7.30;3.03;;;;;;;10.36;nan;-24106.47;5030240;28;20217;-80
2023/01/19 03:36:07;;;;;;;10.55;2.40;;;;;;;10.12;nan;-24099.84;5031945;28;20258;-80
2023/01/19 03:38:41;;;;;;;4.47;2.55;;;;;;;10.42;nan;-24108.16;5031532;28;20726;-84
2023/01/19 03:41:12;;;;;;;8.63;2.90;;;;;;;10.31;nan;-24105.06;5032311;28;20193;-81
2023/01/19 03:43:39;;;;;;;7.82;2.63;;;;;;;9.92;nan;-24094.19;5031792;28;20673;-81
2023/01/19 03:46:06;;;;;;;5.60;2.75;;;;;;;9.92;nan;-24094.19;5030267;28;20257;-79
2023/01/19 03:48:32;;;;;;;21.48;3.67;;;;;;;9.94;nan;-24094.63;5034016;28;20180;-81
2023/01/19 03:51:03;;;;;;;4.90;1.92;;;;;;;9.91;nan;-24093.78;5034026;28;20222;-79
2023/01/19 03:53:28;;;;;;;10.20;2.90;;;;;;;10.27;nan;-24103.94;5035366;28;20171;-83
2023/01/19 03:55:53;;;;;;;5.38;2.33;;;;;;;9.89;nan;-24093.34;5034031;28;20171;-80
2023/01/19 03:58:20;;;;;;;10.82;2.70;;;;;;;10.06;nan;-24098.16;5035480;28;20254;-79
2023/01/19 04:00:46;;;;;;;6.32;2.15;;;;;;;10.14;nan;-24100.41;5035284;28;20179;-82
2023/01/19 04:03:15;;;;;;;10.35;2.60;;;;;;;10.37;nan;-24106.75;5033578;28;20301;-81
2023/01/19 04:05:41;;;;;;;4.82;2.38;;;;;;;10.40;nan;-24107.47;5035616;28;20202;-79
2023/01/19 04:08:06;;;;;;;11.13;2.53;;;;;;;10.47;nan;-24109.59;5033779;28;20610;-79
2023/01/19 04:10:32;;;;;;;5.90;2.42;;;;;;;9.91;nan;-24093.78;5035467;28;20207;-82
2023/01/19 04:12:59;;;;;;;9.98;3.28;;;;;;;10.21;nan;-24102.25;5035544;28;20509;-80
2023/01/19 04:15:25;;;;;;;5.60;2.47;;;;;;;10.28;nan;-24104.06;5035379;28;20183;-80
2023/01/19 04:17:51;;;;;;;3.83;2.53;;;;;;;9.99;nan;-24096.16;5035008;28;20168;-80
2023/01/19 04:20:16;;;;;;;7.00;3.60;;;;;;;10.25;nan;-24103.38;5035116;28;20174;-81
2023/01/19 04:22:42;;;;;;;7.90;2.95;;;;;;;10.29;nan;-24104.50;5030508;28;20272;-82
2023/01/19 04:25:08;;;;;;;11.27;2.47;;;;;;;10.16;nan;-24100.84;5026861;28;20179;-81
2023/01/19 04:27:35;;;;;;;7.63;2.72;;;;;;;10.22;nan;-24102.53;5028365;28;20238;-79
2023/01/19 04:30:02;;;;;;;4.78;2.53;;;;;;;10.30;nan;-24104.78;5028741;28;20195;-82
2023/01/19 04:32:28;;;;;;;8.60;2.75;;;;;;;10.40;nan;-24107.47;5027008;28;20202;-80
2023/01/19 04:35:28;;;;;;;10.52;3.03;;;;;;;10.41;nan;-24107.88;5027150;28;20214;-82
2023/01/19 04:37:56;;;;;;;8.25;2.55;;;;;;;10.28;nan;-24104.06;5026570;28;20274;-83
2023/01/19 04:40:21;;;;;;;10.82;2.70;;;;;;;10.02;nan;-24097.03;5028283;28;20270;-81
2023/01/19 04:42:47;;;;;;;6.07;2.20;;;;;;;10.60;nan;-24113.13;5028639;28;20266;-80
2023/01/19 04:45:13;;;;;;;19.70;2.35;;;;;;;10.29;nan;-24104.38;5029362;28;20270;-80
2023/01/19 04:47:38;;;;;;;11.55;2.10;;;;;;;10.54;nan;-24111.41;5026201;28;20179;-81
2023/01/19 04:50:05;;;;;;;6.78;2.42;;;;;;;10.39;nan;-24107.31;5028652;28;20207;-82
2023/01/19 04:52:35;;;;;;;1.88;1.73;;;;;;;10.94;nan;-24122.69;5028298;28;20273;-82
2023/01/19 04:55:02;;;;;;;4.85;3.42;;;;;;;10.70;nan;-24115.94;5027130;28;20179;-81
2023/01/19 04:57:29;;;;;;;14.07;2.72;;;;;;;10.49;nan;-24110.16;5027944;28;20270;-79
2023/01/19 04:59:55;;;;;;;6.78;2.97;;;;;;;10.37;nan;-24106.63;5028004;28;20172;-79
2023/01/19 05:02:21;;;;;;;8.43;2.80;;;;;;;10.46;nan;-24109.31;5027117;28;20726;-80
2023/01/19 05:04:47;;;;;;;3.15;2.30;;;;;;;10.45;nan;-24109.03;5027919;28;20313;-80
2023/01/19 05:07:13;;;;;;;4.72;2.40;;;;;;;10.55;nan;-24111.69;5026830;28;20202;-80
2023/01/19 05:09:38;;;;;;;4.75;2.20;;;;;;;10.45;nan;-24108.88;5025610;28;20669;-80
2023/01/19 05:12:04;;;;;;;11.30;2.97;;;;;;;10.40;nan;-24107.47;5027833;28;20409;-81
2023/01/19 05:14:30;;;;;;;2.63;2.03;;;;;;;10.00;nan;-24096.31;5028024;28;20184;-81
2023/01/19 05:16:55;;;;;;;6.03;3.03;;;;;;;10.00;nan;-24096.44;5024832;28;20179;-80
2023/01/19 05:19:22;;;;;;;7.20;3.17;;;;;;;10.58;nan;-24112.69;5028550;28;20179;-83
2023/01/19 05:21:48;;;;;;;5.97;3.15;;;;;;;10.18;nan;-24101.53;5028139;28;20176;-78
2023/01/19 05:24:14;;;;;;;8.10;3.00;;;;;;;10.16;nan;-24100.97;5032042;28;20349;-80
2023/01/19 05:26:39;;;;;;;8.30;3.10;;;;;;;10.26;nan;-24103.66;5031520;28;20186;-83
2023/01/19 05:29:05;;;;;;;6.32;2.38;;;;;;;9.75;nan;-24089.38;5032613;28;20250;-81
2023/01/19 05:31:30;;;;;;;5.35;2.78;;;;;;;10.04;nan;-24097.44;5031238;28;20233;-83
2023/01/19 05:33:58;;;;;;;10.55;2.72;;;;;;;9.87;nan;-24092.63;5037029;28;20172;-79
2023/01/19 05:36:23;;;;;;;16.05;3.20;;;;;;;9.80;nan;-24090.66;5042913;28;20177;-79
2023/01/19 05:38:48;;;;;;;14.65;3.53;;;;;;;9.73;nan;-24088.97;5048625;28;20199;-82
2023/01/19 05:41:14;;;;;;;4.00;2.83;;;;;;;9.69;nan;-24087.84;5033542;28;20191;-82
2023/01/19 05:43:39;;;;;;;13.88;3.83;;;;;;;9.56;nan;-24084.03;5032453;28;20178;-81
2023/01/19 05:46:05;;;;;;;6.38;3.72;;;;;;;9.75;nan;-24089.53;5031907;28;20175;-80
2023/01/19 05:48:31;;;;;;;12.95;3.53;;;;;;;9.86;nan;-24092.34;5033137;28;20175;-79
2023/01/19 05:50:58;;;;;;;25.67;3.92;;;;;;;9.50;nan;-24082.31;5031688;28;20206;-82
2023/01/19 05:53:24;;;;;;;12.80;4.55;;;;;;;9.97;nan;-24095.47;5048308;28;20179;-82
2023/01/19 05:55:50;;;;;;;10.32;4.93;;;;;;;9.96;nan;-24095.19;5036037;28;20190;-80
2023/01/19 05:58:15;;;;;;;9.57;3.70;;;;;;;9.91;nan;-24093.78;5033193;28;20175;-83
2023/01/19 06:00:41;;;;;;;4.47;3.40;;;;;;;9.91;nan;-24093.78;5031777;28;20591;-79
2023/01/19 06:03:06;;;;;;;10.13;3.90;;;;;;;9.83;nan;-24091.50;5028585;28;20725;-81
2023/01/19 06:05:32;;;;;;;8.70;3.63;;;;;;;9.59;nan;-24085.00;5038556;28;20237;-81
2023/01/19 06:07:58;;;;;;;7.82;3.38;;;;;;;9.36;nan;-24078.50;5020105;28;20630;-80
2023/01/19 06:10:23;;;;;;;11.20;3.40;;;;;;;8.78;nan;-24062.25;5020340;28;20199;-81
2023/01/19 06:12:50;;;;;;;10.87;2.70;;;;;;;8.95;nan;-24067.06;5021612;28;20678;-77
2023/01/19 06:15:16;;;;;;;4.73;2.20;;;;;;;8.15;nan;-24044.69;5021781;28;20222;-79
2023/01/19 06:17:41;;;;;;;7.90;3.37;;;;;;;8.85;nan;-24064.22;5018856;28;20199;-79
2023/01/19 06:20:08;;;;;;;11.38;3.20;;;;;;;9.12;nan;-24071.72;5017805;28;20310;-80
2023/01/19 06:22:33;;;;;;;13.37;3.70;;;;;;;9.12;nan;-24071.88;5019850;28;20278;-81
2023/01/19 06:24:59;;;;;;;6.17;3.10;;;;;;;8.86;nan;-24064.66;5044543;28;20182;-83
2023/01/19 06:27:24;;;;;;;7.17;3.70;;;;;;;9.08;nan;-24070.72;5052147;28;20173;-83
2023/01/19 06:29:49;;;;;;;14.80;3.40;;;;;;;9.05;nan;-24069.75;5050794;28;20186;-80
2023/01/19 06:32:16;;;;;;;6.10;2.70;;;;;;;9.08;nan;-24070.72;5050778;28;20194;-81
2023/01/19 06:34:42;;;;;;;13.03;3.17;;;;;;;9.45;nan;-24080.91;5050622;28;20174;-81
2023/01/19 06:37:11;;;;;;;16.23;2.90;;;;;;;9.41;nan;-24079.91;5051551;28;20175;-82
2023/01/19 06:39:39;;;;;;;9.52;3.15;;;;;;;9.35;nan;-24078.09;5067000;28;20305;-82
2023/01/19 06:42:06;;;;;;;4.73;2.33;;;;;;;9.56;nan;-24084.03;5051444;28;20258;-80
2023/01/19 06:44:31;;;;;;;11.87;3.03;;;;;;;9.53;nan;-24083.16;5051878;28;20245;-81
2023/01/19 06:46:57;;;;;;;18.13;3.23;;;;;;;9.41;nan;-24079.78;5051637;28;20254;-81
2023/01/19 06:49:23;;;;;;;22.98;3.38;;;;;;;9.72;nan;-24088.53;5049271;28;20264;-83
2023/01/19 06:51:48;;;;;;;18.38;3.25;;;;;;;9.72;nan;-24088.69;5052441;28;20198;-81
2023/01/19 06:54:13;;;;;;;9.18;2.30;;;;;;;9.70;nan;-24088.13;5052214;28;20261;-82
2023/01/19 06:56:39;;;;;;;15.02;3.20;;;;;;;9.70;nan;-24087.97;5067429;28;20163;-83
2023/01/19 06:59:04;;;;;;;10.52;3.30;;;;;;;10.00;nan;-24096.44;5051400;28;20173;-84
2023/01/19 07:01:31;;;;;;;13.50;3.95;;;;;;;10.04;nan;-24097.59;5051042;28;20182;-84
2023/01/19 07:03:57;;;;;;;11.70;4.03;;;;;;;10.46;nan;-24109.31;5050464;28;20223;-80
2023/01/19 07:06:22;;;;;;;17.77;3.88;;;;;;;10.30;nan;-24104.78;5050755;28;20257;-80
2023/01/19 07:08:47;;;;;;;10.10;3.67;;;;;;;10.45;nan;-24109.03;5050720;28;20556;-84
2023/01/19 07:11:13;;;;;;;16.27;4.10;;;;;;;10.83;nan;-24119.59;5049749;28;20206;-80
2023/01/19 07:13:39;;;;;;;13.27;3.63;;;;;;;10.86;nan;-24120.44;5047967;28;20178;-81
2023/01/19 07:16:10;;;;;;;26.20;4.30;;;;;;;10.70;nan;-24115.78;5029555;28;20187;-80
2023/01/19 07:18:37;;;;;;;7.72;3.75;;;;;;;11.46;nan;-24137.22;5029629;28;20572;-83
2023/01/19 07:21:03;;;;;;;13.70;4.13;;;;;;;11.09;nan;-24126.78;5030355;28;20186;-81
2023/01/19 07:23:29;;;;;;;14.52;4.72;;;;;;;11.19;nan;-24129.59;5035622;28;20194;-81
2023/01/19 07:26:02;;;;;;;11.43;4.38;;;;;;;11.43;nan;-24136.38;5035601;28;20171;-82
2023/01/19 07:28:28;;;;;;;18.95;4.35;;;;;;;11.25;nan;-24131.16;5034378;28;20186;-81
2023/01/19 07:30:54;;;;;;;6.70;4.20;;;;;;;11.76;nan;-24145.41;5035780;28;20373;-81
2023/01/19 07:33:24;;;;;;;8.60;3.47;;;;;;;11.94;nan;-24150.59;5035688;28;20233;-79
2023/01/19 07:35:51;;;;;;;7.97;3.10;;;;;;;12.20;nan;-24157.66;5035782;28;20159;-82
2023/01/19 07:38:17;;;;;;;5.90;3.58;;;;;;;12.33;nan;-24161.31;5033861;28;20178;-82
2023/01/19 07:40:45;;;;;;;15.25;3.70;;;;;;;12.37;nan;-24162.44;5034997;28;20635;-82
2023/01/19 07:43:12;;;;;;;6.38;2.88;;;;;;;12.49;nan;-24165.81;5035449;28;20592;-81
2023/01/19 07:45:37;;;;;;;8.57;4.60;;;;;;;12.46;nan;-24164.97;5034545;28;20178;-81
2023/01/19 07:48:04;;;;;;;14.85;4.05;;;;;;;12.21;nan;-24158.06;5033939;28;20179;-82
2023/01/19 07:50:29;;;;;;;43.83;4.22;;;;;;;12.66;nan;-24170.59;5033937;28;20195;-82
2023/01/19 07:52:55;;;;;;;24.17;4.00;;;;;;;12.84;nan;-24175.50;5034727;28;20202;-80
2023/01/19 07:55:21;;;;;;;14.05;4.07;;;;;;;12.93;nan;-24178.03;5036188;28;20175;-81
2023/01/19 07:57:49;;;;;;;19.70;3.38;;;;;;;13.06;nan;-24181.56;5035404;28;20179;-83
2023/01/19 08:00:20;;;;;;;12.00;3.88;;;;;;;13.06;nan;-24181.69;5051488;28;20785;-81
2023/01/19 08:02:50;;;;;;;17.20;3.42;;;;;;;13.12;nan;-24183.38;5034760;28;20562;-82
2023/01/19 08:05:16;;;;;;;9.40;4.10;;;;;;;13.20;nan;-24185.63;5012160;28;20184;-80
2023/01/19 08:07:41;;;;;;;9.60;3.25;;;;;;;13.52;nan;-24194.47;5008511;28;20730;-79
2023/01/19 08:10:08;;;;;;;17.63;3.63;;;;;;;13.84;nan;-24203.19;5015727;28;20222;-84
2023/01/19 08:12:33;;;;;;;7.75;3.45;;;;;;;13.76;nan;-24200.94;4997434;28;20733;-80
2023/01/19 08:14:59;;;;;;;22.17;3.63;;;;;;;13.59;nan;-24196.44;5015546;28;20176;-82
2023/01/19 08:17:24;;;;;;;30.40;4.18;;;;;;;14.10;nan;-24210.50;4997588;28;20176;-80
2023/01/19 08:19:50;;;;;;;16.05;3.65;;;;;;;14.00;nan;-24207.81;5015582;28;20226;-78
2023/01/19 08:22:15;;;;;;;6.18;3.00;;;;;;;14.26;nan;-24214.84;5014432;28;20183;-81
2023/01/19 08:24:41;;;;;;;14.82;2.90;;;;;;;13.94;nan;-24206.13;4997371;28;20180;-80
2023/01/19 08:27:08;;;;;;;10.32;3.58;;;;;;;14.45;nan;-24220.31;4997436;28;20179;-81
2023/01/19 08:29:34;;;;;;;18.65;4.93;;;;;;;14.65;nan;-24225.78;5014780;28;20180;-82
2023/01/19 08:32:01;;;;;;;22.73;4.70;;;;;;;14.49;nan;-24221.44;4997139;28;20670;-81
2023/01/19 08:34:29;;;;;;;16.95;3.95;;;;;;;14.56;nan;-24223.41;4996410;28;20178;-82
2023/01/19 08:36:55;;;;;;;11.43;3.17;;;;;;;14.82;nan;-24230.41;5014789;28;20164;-80
2023/01/19 08:39:22;;;;;;;9.95;3.15;;;;;;;14.89;nan;-24232.38;4996320;28;20267;-82
2023/01/19 08:41:49;;;;;;;12.45;3.50;;;;;;;14.65;nan;-24225.78;4997441;28;20278;-80
2023/01/19 08:44:14;;;;;;;10.23;3.38;;;;;;;15.16;nan;-24239.78;4996479;28;20286;-83
2023/01/19 08:46:40;;;;;;;8.65;2.92;;;;;;;14.98;nan;-24235.03;4997421;28;20206;-81
2023/01/19 08:49:06;;;;;;;26.00;4.00;;;;;;;15.25;nan;-24242.44;4996859;28;20635;-79
2023/01/19 08:51:31;;;;;;;10.43;3.50;;;;;;;15.31;nan;-24244.13;5013651;28;20342;-83
2023/01/19 08:53:58;;;;;;;15.50;3.20;;;;;;;15.68;nan;-24254.34;5013112;28;20180;-83
2023/01/19 08:56:24;;;;;;;12.30;2.88;;;;;;;15.31;nan;-24244.00;5006349;28;20209;-83
2023/01/19 08:58:50;;;;;;;19.23;4.05;;;;;;;15.62;nan;-24252.69;5015729;28;20266;-82
2023/01/19 09:01:15;;;;;;;18.48;3.13;;;;;;;15.68;nan;-24254.34;5015520;28;20321;-79
2023/01/19 09:03:42;;;;;;;13.65;3.08;;;;;;;16.02;nan;-24263.72;5060366;28;20234;-81
2023/01/19 09:06:09;;;;;;;10.43;3.15;;;;;;;16.02;nan;-24263.59;5053251;28;20173;-79
2023/01/19 09:08:35;;;;;;;23.88;3.88;;;;;;;15.74;nan;-24256.03;5051844;28;20217;-83
2023/01/19 09:11:00;;;;;;;16.85;3.63;;;;;;;15.63;nan;-24252.94;5052322;28;20222;-79
2023/01/19 09:13:26;;;;;;;10.65;3.45;;;;;;;16.04;nan;-24264.28;5053721;28;20175;-82
2023/01/19 09:15:52;;;;;;;13.65;3.40;;;;;;;16.24;nan;-24269.88;5053817;28;20159;-82
2023/01/19 09:18:19;;;;;;;8.27;3.55;;;;;;;16.29;nan;-24271.13;5051887;28;20261;-83
2023/01/19 09:20:46;;;;;;;10.00;3.42;;;;;;;16.21;nan;-24269.03;5053382;28;20178;-81
2023/01/19 09:23:15;;;;;;;13.88;3.30;;;;;;;16.65;nan;-24281.06;5053337;28;20642;-82
2023/01/19 09:25:44;;;;;;;18.05;3.92;;;;;;;16.33;nan;-24272.41;5053364;28;20209;-82
2023/01/19 09:28:11;;;;;;;24.58;4.20;;;;;;;16.39;nan;-24273.78;5052057;28;20178;-80
2023/01/19 09:30:38;;;;;;;9.85;3.13;;;;;;;16.60;nan;-24279.66;5052101;28;20221;-80
2023/01/19 09:33:09;;;;;;;9.07;3.10;;;;;;;16.89;nan;-24287.63;5052883;28;20182;-80
2023/01/19 09:35:36;;;;;;;9.05;3.13;;;;;;;17.14;nan;-24294.75;5052111;28;20175;-81
2023/01/19 09:38:02;;;;;;;22.17;3.65;;;;;;;17.33;nan;-24299.78;5052043;28;20166;-83
2023/01/19 09:40:28;;;;;;;20.55;3.83;;;;;;;17.15;nan;-24295.03;5053501;28;20177;-64
2023/01/19 09:43:03;;;;;;;12.07;3.08;;;;;;;17.51;nan;-24304.94;5051428;28;20167;-64
2023/01/19 09:45:41;;;;;;;13.43;3.08;;;;;;;17.07;nan;-24292.81;5051762;28;20512;-66
2023/01/19 09:48:31;;;;;;;13.50;2.50;;;;;;;17.07;nan;-24292.66;5052572;28;20626;-67
2023/01/19 09:51:01;;;;;;;19.48;3.30;;;;;;;17.71;nan;-24310.38;5052748;28;20195;-65
2023/01/19 09:53:40;;;;;;;9.23;3.08;;;;;;;17.67;nan;-24309.41;5052799;28;20587;-66
2023/01/19 09:56:28;;;;;;;13.20;3.53;;;;;;;17.89;nan;-24315.28;5052639;28;20163;-66
2023/01/19 09:58:53;;;;;;;13.68;2.60;;;;;;;17.84;nan;-24314.00;5052842;28;20178;-66
2023/01/19 10:01:30;;;;;;;24.65;2.78;;;;;;;17.93;nan;-24316.53;5052611;28;20712;-66
2023/01/19 10:04:17;;;;;;;12.70;3.95;;;;;;;17.89;nan;-24315.28;5052403;28;20296;-66
2023/01/19 10:06:55;;;;;;;14.30;2.80;;;;;;;18.33;97.33;-24327.53;5108961;27;20681;-66
2023/01/19 10:10:01;;;;;;;12.07;2.90;;;;;;;18.22;95.96;-24324.47;5109630;28;20259;-66
2023/01/19 10:12:35;;;;;;;5.90;2.65;;;;;;;17.93;94.47;-24316.38;5109021;28;20185;-65
2023/01/19 10:15:10;;;;;;;20.20;3.25;;;;;;;18.41;93.76;-24329.75;5109095;28;20176;-66
2023/01/19 10:17:51;;;;;;;15.57;2.95;;;;;;;18.53;93.24;-24333.13;5109824;28;20163;-68
2023/01/19 10:20:27;;;;;;;17.85;2.75;;;;;;;18.36;89.21;-24328.38;5109396;28;20160;-68
2023/01/19 10:22:55;;;;;;;8.98;2.42;;;;;;;18.51;80.47;-24332.56;5109143;28;20172;-67
2023/01/19 10:25:24;;;;;;;11.02;2.80;;;;;;;18.98;78.64;-24345.38;5108918;28;20197;-67
2023/01/19 10:27:50;;;;;;;22.10;3.70;;;;;;;18.70;77.87;-24337.56;5109230;28;20196;-67
2023/01/19 10:30:22;;;;;;;10.38;2.33;;;;;;;19.05;79.53;-24347.19;5109653;28;20222;-67
2023/01/19 10:32:48;;;;;;;11.52;2.55;;;;;;;19.34;84.77;-24355.38;5107737;28;20249;-68
2023/01/19 10:35:25;;;;;;;10.60;3.08;;;;;;;19.27;83.29;-24353.28;5108428;28;20184;-68
2023/01/19 10:37:54;;;;;;;16.25;2.72;;;;;;;19.52;77.51;-24360.25;5108425;28;20175;-68
2023/01/19 10:40:29;;;;;;;7.88;1.92;;;;;;;19.74;77.29;-24366.22;5109349;28;20181;-68
2023/01/19 10:42:56;;;;;;;15.13;2.60;;;;;;;19.67;73.00;-24364.44;5109313;28;20247;-68
2023/01/19 10:45:28;;;;;;;7.30;2.47;;;;;;;19.93;71.37;-24371.50;5108936;28;20717;-69
2023/01/19 10:47:58;;;;;;;6.10;2.00;;;;;;;20.14;70.62;-24377.22;5107855;28;20253;-68
2023/01/19 10:50:38;;;;;;;15.52;2.28;;;;;;;20.65;60.68;-24391.22;5108804;28;20176;-68
2023/01/19 10:53:05;;;;;;;10.02;2.30;;;;;;;20.44;58.73;-24385.53;5108894;28;20319;-68
2023/01/19 10:55:38;;;;;;;6.35;2.05;;;;;;;20.30;59.33;-24381.66;5108652;28;20187;-68
2023/01/19 10:58:05;;;;;;;12.18;2.63;;;;;;;20.49;58.36;-24386.78;5108639;28;20260;-68
2023/01/19 11:00:36;;;;;;;9.23;2.40;;;;;;;20.78;60.99;-24394.69;5108711;28;20203;-68
2023/01/19 11:03:03;;;;;;;7.05;1.92;;;;;;;20.62;61.47;-24390.53;5108489;28;20447;-69
2023/01/19 11:05:31;;;;;;;12.40;2.33;;;;;;;20.92;57.18;-24398.72;5108538;28;20686;-68
2023/01/19 11:07:57;;;;;;;15.15;2.33;;;;;;;20.79;58.71;-24395.13;5108848;28;20651;-68
2023/01/19 11:10:24;;;;;;;8.80;2.13;;;;;;;21.31;57.06;-24409.28;5108467;28;20235;-68
2023/01/19 11:13:06;;;;;;;19.92;3.80;;;;;;;21.35;58.60;-24410.50;5108342;28;20222;-68
2023/01/19 11:15:40;;;;;;;8.98;2.00;;;;;;;20.72;59.26;-24393.19;5107863;28;20624;-68
2023/01/19 11:18:06;;;;;;;14.15;3.33;;;;;;;20.76;59.21;-24394.28;5095490;28;20239;-68
2023/01/19 11:20:39;;;;;;;7.97;2.58;;;;;;;21.02;58.76;-24401.50;5094317;28;20269;-68
2023/01/19 11:23:19;;;;;;;14.65;2.88;;;;;;;20.89;57.75;-24397.75;5094204;28;20158;-69
2023/01/19 11:25:47;;;;;;;8.25;3.78;;;;;;;20.78;56.76;-24394.69;5093872;28;20207;-68
2023/01/19 11:28:30;;;;;;;14.15;2.63;;;;;;;21.11;53.06;-24403.84;5094684;28;20628;-69
2023/01/19 11:31:17;;;;;;;12.80;2.15;;;;;;;20.72;55.39;-24393.19;5094588;28;20701;-70
2023/01/19 11:33:46;;;;;;;8.73;2.00;;;;;;;21.07;53.61;-24402.75;5094011;28;20276;-67
2023/01/19 11:36:22;;;;;;;9.45;2.00;;;;;;;20.92;50.83;-24398.72;5094201;28;20179;-68
2023/01/19 11:38:51;;;;;;;8.88;2.70;;;;;;;20.95;52.29;-24399.56;5094638;28;20165;-69
2023/01/19 11:41:24;;;;;;;6.90;2.15;;;;;;;21.02;53.68;-24401.50;5094166;28;20179;-69
2023/01/19 11:44:22;;;;;;;10.10;2.53;;;;;;;21.19;52.28;-24405.94;5094001;28;20173;-69
2023/01/19 11:47:02;;;;;;;8.60;2.03;;;;;;;21.28;48.34;-24408.56;5092726;28;20684;-68
2023/01/19 11:49:48;;;;;;;7.60;1.95;;;;;;;21.27;48.10;-24408.16;5094226;28;20176;-68
2023/01/19 11:52:31;;;;;;;10.23;1.70;;;;;;;20.72;42.47;-24393.19;5094065;28;20537;-72
2023/01/19 11:55:22;;;;;;;5.97;1.42;;;;;;;20.81;43.57;-24395.66;5093869;28;20165;-72
2023/01/19 11:57:50;;;;;;;2.55;1.30;;;;;;;20.79;42.79;-24394.97;5094026;28;20169;-72
2023/01/19 12:00:24;;;;;;;7.63;1.70;;;;;;;20.71;42.56;-24392.91;5094570;28;20556;-72
2023/01/19 12:02:56;;;;;;;2.63;1.25;;;;;;;20.54;42.01;-24388.31;5094165;28;20207;-73
2023/01/19 12:05:32;;;;;;;2.38;1.42;;;;;;;20.68;41.73;-24392.06;5093352;28;20703;-73